createdAt,value
2019-03-13T00:01:49.709Z,84.17
2019-03-13T00:03:53.232Z,85.97
2019-03-13T00:05:56.822Z,84.95
2019-03-13T00:08:00.934Z,80.45
2019-03-13T00:10:06.822Z,75.52
2019-03-13T00:12:10.269Z,79.32
2019-03-13T00:14:13.721Z,79.58
2019-03-13T00:16:17.313Z,73.67
2019-03-13T00:18:20.933Z,75.97
2019-03-13T00:20:24.870Z,76.90
2019-03-13T00:22:28.414Z,84.15
2019-03-13T00:24:32.289Z,76.57
2019-03-13T00:26:35.736Z,74.35
2019-03-13T00:28:39.278Z,74.60
2019-03-13T00:30:42.797Z,65.37
2019-03-13T00:32:46.589Z,69.97
2019-03-13T00:34:50.101Z,71.53
2019-03-13T00:36:53.642Z,78.07
2019-03-13T00:38:57.151Z,73.05
2019-03-13T00:41:00.727Z,72.05
2019-03-13T00:43:04.561Z,72.85
2019-03-13T00:45:10.417Z,65.90
2019-03-13T00:47:13.881Z,65.78
2019-03-13T00:49:17.393Z,65.62
2019-03-13T00:51:20.846Z,63.38
2019-03-13T00:53:24.298Z,59.03
2019-03-13T00:55:28.094Z,72.62
2019-03-13T00:57:31.752Z,59.75
2019-03-13T00:59:35.273Z,58.75
2019-03-13T01:01:45.854Z,59.05
2019-03-13T01:03:51.274Z,54.53
2019-03-13T01:06:09.018Z,55.92
2019-03-13T01:08:12.590Z,54.60
2019-03-13T01:10:16.238Z,52.17
2019-03-13T01:12:20.520Z,66.60
2019-03-13T01:14:25.050Z,61.25
2019-03-13T01:16:30.134Z,51.58
2019-03-13T01:18:33.885Z,56.73
2019-03-13T01:20:37.334Z,54.48
2019-03-13T01:22:40.786Z,55.75
2019-03-13T01:24:44.249Z,52.98
2019-03-13T01:26:48.070Z,45.03
2019-03-13T01:28:51.598Z,49.98
2019-03-13T01:30:59.810Z,54.13
2019-03-13T01:33:10.541Z,54.80
2019-03-13T01:35:18.614Z,49.23
2019-03-13T01:37:22.061Z,50.98
2019-03-13T01:39:25.517Z,48.75
2019-03-13T01:41:29.141Z,43.87
2019-03-13T01:43:32.654Z,46.92
2019-03-13T01:45:36.182Z,48.65
2019-03-13T01:47:39.756Z,41.75
2019-03-13T01:49:43.585Z,50.33
2019-03-13T01:51:47.045Z,43.65
2019-03-13T01:53:50.498Z,44.98
2019-03-13T01:55:54.029Z,49.27
2019-03-13T01:57:57.478Z,47.40
2019-03-13T02:00:01.005Z,49.20
2019-03-13T02:02:04.790Z,52.80
2019-03-13T02:04:08.387Z,54.70
2019-03-13T02:06:11.902Z,49.20
2019-03-13T02:08:15.779Z,45.10
2019-03-13T02:10:19.580Z,47.40
2019-03-13T02:12:23.101Z,41.70
2019-03-13T02:14:26.560Z,47.48
2019-03-13T02:16:30.013Z,44.85
2019-03-13T02:18:33.462Z,47.23
2019-03-13T02:20:37.254Z,46.55
2019-03-13T02:22:40.975Z,47.40
2019-03-13T02:24:44.777Z,51.98
2019-03-13T02:26:48.298Z,50.55
2019-03-13T02:28:51.745Z,46.63
2019-03-13T02:30:55.269Z,50.58
2019-03-13T02:32:58.726Z,47.20
2019-03-13T02:35:02.178Z,54.40
2019-03-13T02:37:05.842Z,52.95
2019-03-13T02:39:09.290Z,49.58
2019-03-13T02:41:12.743Z,45.12
2019-03-13T02:43:16.198Z,45.88
2019-03-13T02:45:22.398Z,45.52
2019-03-13T02:47:25.846Z,49.42
2019-03-13T02:49:29.299Z,44.90
2019-03-13T02:51:33.193Z,44.90
2019-03-13T02:53:36.762Z,41.25
2019-03-13T02:55:40.245Z,46.42
2019-03-13T02:57:43.826Z,46.98
2019-03-13T02:59:47.352Z,43.87
2019-03-13T03:01:53.202Z,41.90
2019-03-13T03:03:58.290Z,37.60
2019-03-13T03:06:01.759Z,42.83
2019-03-13T03:08:05.368Z,36.25
2019-03-13T03:10:12.148Z,41.80
2019-03-13T03:12:15.669Z,39.53
2019-03-13T03:14:19.357Z,47.80
2019-03-13T03:16:22.798Z,43.00
2019-03-13T03:18:26.287Z,39.25
2019-03-13T03:20:29.765Z,39.15
2019-03-13T03:22:33.309Z,38.98
2019-03-13T03:24:36.756Z,36.70
2019-03-13T03:26:41.205Z,39.03
2019-03-13T03:28:45.006Z,42.55
2019-03-13T03:30:48.547Z,42.58
2019-03-13T03:32:52.080Z,40.60
2019-03-13T03:34:55.743Z,40.25
2019-03-13T03:36:59.246Z,40.78
2019-03-13T03:39:04.809Z,42.75
2019-03-13T03:41:08.766Z,37.83
2019-03-13T03:43:12.241Z,44.77
2019-03-13T03:45:16.362Z,43.50
2019-03-13T03:47:19.962Z,44.83
2019-03-13T03:49:23.430Z,37.17
2019-03-13T03:51:26.948Z,37.90
2019-03-13T03:53:30.736Z,38.75
2019-03-13T03:55:34.254Z,37.80
2019-03-13T03:57:37.704Z,41.55
2019-03-13T03:59:41.295Z,42.95
2019-03-13T04:01:45.050Z,36.45
2019-03-13T04:03:48.498Z,37.42
2019-03-13T04:05:52.298Z,38.15
2019-03-13T04:07:55.751Z,40.70
2019-03-13T04:09:59.194Z,40.05
2019-03-13T04:12:03.014Z,37.05
2019-03-13T04:14:06.530Z,35.35
2019-03-13T04:16:10.267Z,38.00
2019-03-13T04:18:13.787Z,37.42
2019-03-13T04:20:18.469Z,83.50
2019-03-13T04:22:21.983Z,142.32
2019-03-13T04:24:25.514Z,67.32
2019-03-13T04:26:29.039Z,35.58
2019-03-13T04:28:32.555Z,32.98
2019-03-13T04:30:36.082Z,33.33
2019-03-13T04:32:40.012Z,30.00
2019-03-13T04:34:43.454Z,36.90
2019-03-13T04:36:47.202Z,34.90
2019-03-13T04:38:50.665Z,184.35
2019-03-13T04:40:54.125Z,129.87
2019-03-13T04:42:57.573Z,39.15
2019-03-13T04:45:01.291Z,36.80
2019-03-13T04:47:04.824Z,39.00
2019-03-13T04:49:08.317Z,37.00
2019-03-13T04:51:12.285Z,32.98
2019-03-13T04:53:15.754Z,38.85
2019-03-13T04:55:19.284Z,36.20
2019-03-13T04:57:22.853Z,35.03
2019-03-13T04:59:26.313Z,34.60
2019-03-13T05:01:29.773Z,32.13
2019-03-13T05:05:54.998Z,31.60
2019-03-13T05:07:58.453Z,36.75
2019-03-13T05:10:01.910Z,42.48
2019-03-13T05:12:05.352Z,34.85
2019-03-13T05:14:09.158Z,34.50
2019-03-13T05:16:12.737Z,32.03
2019-03-13T05:18:16.526Z,29.50
2019-03-13T05:20:20.157Z,35.45
2019-03-13T05:22:23.616Z,33.05
2019-03-13T05:24:27.085Z,28.52
2019-03-13T05:26:30.544Z,39.98
2019-03-13T05:28:34.080Z,33.30
2019-03-13T05:30:37.573Z,34.30
2019-03-13T05:32:41.445Z,34.23
2019-03-13T05:34:44.912Z,27.00
2019-03-13T05:36:48.416Z,34.10
2019-03-13T05:38:51.944Z,33.40
2019-03-13T05:40:55.404Z,36.10
2019-03-13T05:42:59.337Z,35.55
2019-03-13T05:45:02.968Z,40.08
2019-03-13T05:47:06.434Z,35.63
2019-03-13T05:49:10.328Z,33.85
2019-03-13T05:51:13.793Z,33.67
2019-03-13T05:53:17.368Z,36.93
2019-03-13T05:55:20.900Z,35.85
2019-03-13T05:57:24.366Z,33.05
2019-03-13T05:59:28.213Z,43.68
2019-03-13T06:01:31.677Z,36.05
2019-03-13T06:03:35.140Z,43.68
2019-03-13T06:05:38.906Z,47.40
2019-03-13T06:07:42.616Z,42.48
2019-03-13T06:09:46.282Z,45.98
2019-03-13T06:11:50.128Z,59.73
2019-03-13T06:13:53.592Z,64.70
2019-03-13T06:15:57.129Z,66.50
2019-03-13T06:18:01.407Z,59.42
2019-03-13T06:20:10.584Z,51.05
2019-03-13T06:22:14.549Z,56.40
2019-03-13T06:24:18.833Z,51.42
2019-03-13T06:26:22.300Z,38.53
2019-03-13T06:28:25.836Z,34.65
2019-03-13T06:30:29.652Z,29.98
2019-03-13T06:32:33.453Z,30.37
2019-03-13T06:34:36.911Z,28.02
2019-03-13T06:36:40.449Z,28.32
2019-03-13T06:38:44.453Z,29.50
2019-03-13T06:40:47.993Z,25.92
2019-03-13T06:42:51.453Z,29.67
2019-03-13T06:44:55.933Z,27.65
2019-03-13T06:46:59.767Z,25.68
2019-03-13T06:49:03.300Z,25.40
2019-03-13T06:51:07.029Z,24.25
2019-03-13T06:53:10.738Z,27.98
2019-03-13T06:55:14.686Z,25.68
2019-03-13T06:57:18.472Z,29.45
2019-03-13T06:59:23.645Z,27.00
2019-03-13T07:01:31.473Z,29.45
2019-03-13T07:03:39.296Z,26.80
2019-03-13T07:05:47.662Z,29.35
2019-03-13T07:07:53.144Z,73.17
2019-03-13T07:09:58.356Z,114.50
2019-03-13T07:12:06.177Z,63.30
2019-03-13T07:14:17.392Z,99.95
2019-03-13T07:16:39.261Z,66.53
2019-03-13T07:18:44.832Z,129.97
2019-03-13T07:20:52.614Z,83.33
2019-03-13T07:22:58.021Z,69.50
2019-03-13T07:25:09.749Z,49.45
2019-03-13T07:27:15.190Z,48.30
2019-03-13T07:29:23.523Z,64.50
2019-03-13T07:31:28.704Z,127.45
2019-03-13T07:33:34.765Z,129.82
2019-03-13T07:35:40.816Z,54.10
2019-03-13T07:37:51.504Z,73.22
2019-03-13T07:40:03.112Z,85.42
2019-03-13T07:42:24.437Z,98.27
2019-03-13T07:44:44.530Z,243.02
2019-03-13T07:47:06.102Z,554.72
2019-03-13T07:49:23.841Z,430.43
2019-03-13T07:51:29.380Z,309.40
2019-03-13T07:53:37.247Z,233.23
2019-03-13T07:55:48.560Z,59.55
2019-03-13T07:57:53.740Z,27.65
2019-03-13T07:59:59.332Z,21.82
2019-03-13T08:02:20.944Z,18.75
2019-03-13T08:04:26.369Z,21.62
2019-03-13T08:06:31.552Z,22.00
2019-03-13T08:08:40.481Z,21.40
2019-03-13T08:11:01.964Z,23.90
2019-03-13T08:13:16.089Z,27.95
2019-03-13T08:15:30.182Z,19.55
2019-03-13T08:17:38.053Z,19.82
2019-03-13T08:19:50.020Z,25.02
2019-03-13T08:22:04.093Z,19.17
2019-03-13T08:24:09.651Z,22.02
2019-03-13T08:26:31.024Z,62.03
2019-03-13T08:28:51.513Z,35.98
2019-03-13T08:31:05.803Z,41.98
2019-03-13T08:33:27.817Z,24.60
2019-03-13T08:35:33.049Z,57.53
2019-03-13T08:37:42.074Z,48.65
2019-03-13T08:40:05.105Z,56.25
2019-03-13T08:42:10.328Z,20.23
2019-03-13T08:44:28.069Z,17.65
2019-03-13T08:46:35.950Z,29.67
2019-03-13T08:48:43.940Z,17.50
2019-03-13T08:50:55.120Z,17.75
2019-03-13T08:53:06.480Z,13.62
2019-03-13T08:55:28.401Z,14.00
2019-03-13T08:57:39.617Z,17.90
2019-03-13T08:59:45.085Z,22.70
2019-03-13T09:01:53.128Z,20.30
2019-03-13T09:04:13.164Z,19.15
2019-03-13T09:06:24.494Z,17.17
2019-03-13T09:08:29.664Z,15.90
2019-03-13T09:10:35.030Z,22.13
2019-03-13T09:12:49.481Z,19.65
2019-03-13T09:15:10.238Z,19.60
2019-03-13T09:17:15.486Z,18.62
2019-03-13T09:19:20.768Z,14.95
2019-03-13T09:21:33.629Z,16.80
2019-03-13T09:23:38.988Z,19.07
2019-03-13T09:26:00.424Z,22.67
2019-03-13T09:28:05.596Z,14.93
2019-03-13T09:30:22.076Z,16.65
2019-03-13T09:32:45.394Z,15.28
2019-03-13T09:35:07.454Z,20.88
2019-03-13T09:37:22.289Z,17.15
2019-03-13T09:39:43.633Z,17.57
2019-03-13T09:41:51.818Z,22.87
2019-03-13T09:44:12.006Z,16.23
2019-03-13T09:46:17.455Z,15.68
2019-03-13T09:48:31.435Z,18.55
2019-03-13T09:50:42.429Z,12.33
2019-03-13T09:52:53.422Z,15.85
2019-03-13T09:55:10.873Z,16.57
2019-03-13T09:57:18.553Z,12.37
2019-03-13T09:59:43.606Z,12.35
2019-03-13T10:01:47.368Z,13.93
2019-03-13T10:04:01.843Z,11.55
2019-03-13T10:06:07.127Z,15.63
2019-03-13T10:08:28.663Z,15.93
2019-03-13T10:10:46.016Z,16.73
2019-03-13T10:13:02.752Z,21.50
2019-03-13T10:15:17.700Z,21.30
2019-03-13T10:17:22.877Z,18.05
2019-03-13T10:19:43.037Z,16.75
2019-03-13T10:21:46.930Z,20.62
2019-03-13T10:23:58.381Z,37.33
2019-03-13T10:26:12.185Z,37.88
2019-03-13T10:28:17.288Z,32.20
2019-03-13T10:30:25.669Z,43.68
2019-03-13T10:32:30.776Z,23.87
2019-03-13T10:34:44.894Z,23.87
2019-03-13T10:36:55.853Z,25.23
2019-03-13T10:39:06.829Z,21.95
2019-03-13T10:41:11.968Z,34.90
2019-03-13T10:43:20.229Z,25.60
2019-03-13T10:45:25.408Z,25.25
2019-03-13T10:47:30.593Z,20.62
2019-03-13T10:49:41.952Z,24.60
2019-03-13T10:52:03.773Z,20.60
2019-03-13T10:54:25.317Z,24.98
2019-03-13T10:56:30.728Z,23.30
2019-03-13T10:58:54.610Z,28.52
2019-03-13T11:01:02.514Z,25.02
2019-03-13T11:03:24.309Z,24.05
2019-03-13T11:05:41.649Z,19.82
2019-03-13T11:07:52.917Z,16.12
2019-03-13T11:10:08.014Z,22.85
2019-03-13T11:12:21.953Z,18.92
2019-03-13T11:14:29.519Z,15.40
2019-03-13T11:16:50.252Z,16.52
2019-03-13T11:19:01.780Z,21.37
2019-03-13T11:21:15.721Z,19.55
2019-03-13T11:23:39.243Z,16.27
2019-03-13T11:25:47.512Z,15.53
2019-03-13T11:27:55.641Z,20.52
2019-03-13T11:30:13.037Z,27.67
2019-03-13T11:32:21.136Z,26.97
2019-03-13T11:34:45.392Z,18.32
2019-03-13T11:36:55.969Z,18.48
2019-03-13T11:39:19.556Z,15.28
2019-03-13T11:41:30.562Z,16.48
2019-03-13T11:43:41.193Z,19.57
2019-03-13T11:45:54.505Z,17.40
2019-03-13T11:47:59.785Z,16.23
2019-03-13T11:50:23.144Z,17.07
2019-03-13T11:52:37.585Z,17.80
2019-03-13T11:54:59.132Z,15.83
2019-03-13T11:57:04.318Z,17.45
2019-03-13T11:59:18.239Z,16.20
2019-03-13T12:01:23.716Z,17.02
2019-03-13T12:03:29.234Z,18.12
2019-03-13T12:05:37.565Z,12.68
2019-03-13T12:07:51.549Z,14.45
2019-03-13T12:10:00.785Z,16.70
2019-03-13T12:12:17.720Z,13.50
2019-03-13T12:14:35.116Z,10.50
2019-03-13T12:16:56.230Z,10.98
2019-03-13T12:19:01.716Z,16.23
2019-03-13T12:21:22.041Z,18.45
2019-03-13T12:23:33.092Z,19.95
2019-03-13T12:25:50.508Z,18.12
2019-03-13T12:27:56.605Z,15.80
2019-03-13T12:30:07.893Z,13.65
2019-03-13T12:32:25.108Z,14.07
2019-03-13T12:34:39.485Z,27.02
2019-03-13T12:36:44.796Z,17.42
2019-03-13T12:38:52.861Z,25.82
2019-03-13T12:41:14.809Z,35.15
2019-03-13T12:43:26.533Z,25.90
2019-03-13T12:45:32.072Z,25.52
2019-03-13T12:47:46.080Z,32.55
2019-03-13T12:49:51.180Z,17.50
2019-03-13T12:52:06.088Z,24.23
2019-03-13T12:54:23.645Z,44.70
2019-03-13T12:56:35.137Z,47.93
2019-03-13T12:58:43.044Z,23.42
2019-03-13T13:01:03.136Z,36.60
2019-03-13T13:03:24.326Z,24.25
2019-03-13T13:05:35.432Z,24.12
2019-03-13T13:07:43.273Z,26.02
2019-03-13T13:10:00.785Z,13.15
2019-03-13T13:14:31.733Z,18.98
2019-03-13T13:16:53.006Z,14.87
2019-03-13T13:18:56.673Z,13.38
2019-03-13T13:21:00.573Z,16.70
2019-03-13T13:23:04.381Z,17.10
2019-03-13T13:25:10.839Z,16.85
2019-03-13T13:27:14.650Z,25.90
2019-03-13T13:29:19.062Z,21.48
2019-03-13T13:31:22.610Z,20.92
2019-03-13T13:33:26.148Z,16.40
2019-03-13T13:35:29.620Z,17.02
2019-03-13T13:37:33.158Z,55.88
2019-03-13T13:39:36.659Z,18.85
2019-03-13T13:41:40.549Z,17.42
2019-03-13T13:43:44.085Z,15.65
2019-03-13T13:45:50.641Z,25.85
2019-03-13T13:47:54.200Z,34.75
2019-03-13T13:49:59.822Z,16.80
2019-03-13T13:52:03.469Z,18.62
2019-03-13T13:54:07.023Z,25.65
2019-03-13T13:56:10.692Z,15.53
2019-03-13T13:58:14.446Z,23.85
2019-03-13T14:00:18.323Z,46.48
2019-03-13T14:02:21.965Z,45.92
2019-03-13T14:04:25.749Z,26.30
2019-03-13T14:06:29.649Z,14.90
2019-03-13T14:08:33.162Z,23.47
2019-03-13T14:10:36.640Z,28.55
2019-03-13T14:12:40.113Z,33.70
2019-03-13T14:14:43.653Z,28.57
2019-03-13T14:16:47.197Z,32.98
2019-03-13T14:18:50.806Z,35.73
2019-03-13T14:20:55.217Z,48.38
2019-03-13T14:22:58.949Z,26.95
2019-03-13T14:25:02.849Z,30.08
2019-03-13T14:27:14.560Z,40.92
2019-03-13T14:29:11.585Z,56.45
2019-03-13T14:31:15.484Z,53.83
2019-03-13T14:33:19.419Z,80.80
2019-03-13T14:35:23.419Z,30.12
2019-03-13T14:37:26.965Z,54.83
2019-03-13T14:39:30.516Z,23.42
2019-03-13T14:41:34.016Z,29.18
2019-03-13T14:43:37.786Z,44.42
2019-03-13T14:45:41.324Z,32.23
2019-03-13T14:47:45.903Z,29.25
2019-03-13T14:49:49.450Z,31.57
2019-03-13T14:51:52.912Z,53.52
2019-03-13T14:53:56.799Z,28.55
2019-03-13T14:56:00.268Z,21.15
2019-03-13T14:58:04.808Z,124.80
2019-03-13T15:00:20.802Z,33.45
2019-03-13T15:02:25.648Z,20.05
2019-03-13T15:04:29.282Z,31.57
2019-03-13T15:06:32.796Z,31.62
2019-03-13T15:08:36.341Z,18.87
2019-03-13T15:10:40.245Z,21.23
2019-03-13T15:12:43.704Z,17.23
2019-03-13T15:14:47.525Z,25.55
2019-03-13T15:16:53.295Z,28.05
2019-03-13T15:18:56.513Z,25.23
2019-03-13T15:21:00.490Z,25.23
2019-03-13T15:23:07.487Z,30.55
2019-03-13T15:25:12.009Z,50.78
2019-03-13T15:27:16.392Z,64.90
2019-03-13T15:29:19.875Z,119.35
2019-03-13T15:31:23.848Z,131.35
2019-03-13T15:33:27.652Z,100.70
2019-03-13T15:35:32.017Z,119.35
2019-03-13T15:37:36.000Z,64.55
2019-03-13T15:39:39.730Z,132.82
2019-03-13T15:41:43.234Z,154.07
2019-03-13T15:43:47.013Z,22.73
2019-03-13T15:45:50.697Z,36.93
2019-03-13T15:47:54.232Z,36.58
2019-03-13T15:49:58.101Z,56.65
2019-03-13T15:52:01.644Z,84.77
2019-03-13T15:54:05.109Z,122.17
2019-03-13T15:56:08.644Z,156.07
2019-03-13T15:58:12.111Z,88.72
2019-03-13T16:00:25.948Z,103.83
2019-03-13T16:02:29.720Z,108.52
2019-03-13T16:04:33.649Z,37.33
2019-03-13T16:06:37.423Z,72.67
2019-03-13T16:08:40.960Z,78.80
2019-03-13T16:10:46.257Z,89.35
2019-03-13T16:12:50.264Z,119.62
2019-03-13T16:14:54.604Z,65.75
2019-03-13T16:16:58.100Z,77.82
2019-03-13T16:19:02.568Z,95.72
2019-03-13T16:21:06.324Z,70.25
2019-03-13T16:23:09.853Z,98.78
2019-03-13T16:25:14.000Z,48.73
2019-03-13T16:27:17.519Z,78.90
2019-03-13T16:29:21.092Z,133.52
2019-03-13T16:31:24.561Z,107.67
2019-03-13T16:33:28.910Z,89.37
2019-03-13T16:35:32.805Z,92.80
2019-03-13T16:37:36.449Z,119.10
2019-03-13T16:39:39.908Z,98.50
2019-03-13T16:41:43.705Z,71.95
2019-03-13T16:43:47.501Z,43.60
2019-03-13T16:45:50.965Z,26.27
2019-03-13T16:47:54.426Z,22.27
2019-03-13T16:49:58.016Z,30.45
2019-03-13T16:52:01.816Z,23.35
2019-03-13T16:54:05.532Z,28.70
2019-03-13T16:56:09.064Z,22.02
2019-03-13T16:58:13.394Z,18.32
2019-03-13T17:00:25.116Z,24.35
2019-03-13T17:02:28.765Z,73.45
2019-03-13T17:04:32.230Z,58.85
2019-03-13T17:06:36.095Z,178.70
2019-03-13T17:08:39.995Z,238.77
2019-03-13T17:10:43.901Z,185.97
2019-03-13T17:12:47.667Z,179.75
2019-03-13T17:14:51.277Z,143.87
2019-03-13T17:16:55.160Z,182.15
2019-03-13T17:18:58.674Z,140.35
2019-03-13T17:21:02.253Z,882.95
2019-03-13T17:23:08.310Z,1052.83
2019-03-13T17:25:14.769Z,1187.72
2019-03-13T17:27:18.622Z,250.35
2019-03-13T17:29:22.374Z,86.78
2019-03-13T17:31:25.872Z,48.33
2019-03-13T17:33:30.805Z,50.70
2019-03-13T17:35:34.266Z,77.87
2019-03-13T17:37:38.590Z,393.45
2019-03-13T17:39:42.129Z,407.30
2019-03-13T17:41:46.061Z,106.17
2019-03-13T17:43:49.965Z,115.75
2019-03-13T17:45:53.969Z,131.07
2019-03-13T17:47:57.511Z,181.47
2019-03-13T17:50:01.980Z,248.78
2019-03-13T17:52:05.530Z,268.07
2019-03-13T17:54:09.069Z,202.45
2019-03-13T17:56:12.532Z,135.00
2019-03-13T17:58:16.268Z,95.50
2019-03-13T18:00:47.274Z,85.38
2019-03-13T18:02:50.861Z,70.95
2019-03-13T18:04:54.609Z,68.85
2019-03-13T18:06:58.080Z,70.40
2019-03-13T18:09:04.176Z,72.03
2019-03-13T18:11:07.558Z,71.62
2019-03-13T18:13:11.157Z,65.17
2019-03-13T18:15:15.557Z,63.60
2019-03-13T18:17:19.701Z,61.85
2019-03-13T18:19:23.581Z,84.45
2019-03-13T18:21:27.052Z,92.12
2019-03-13T18:23:30.732Z,95.38
2019-03-13T18:25:34.509Z,92.55
2019-03-13T18:27:38.401Z,84.70
2019-03-13T18:29:42.249Z,97.92
2019-03-13T18:31:45.844Z,123.78
2019-03-13T18:33:59.071Z,162.62
2019-03-13T18:36:02.623Z,135.85
2019-03-13T18:38:06.995Z,139.22
2019-03-13T18:40:16.100Z,121.60
2019-03-13T18:42:22.569Z,106.87
2019-03-13T18:44:26.548Z,106.37
2019-03-13T18:46:30.421Z,109.63
2019-03-13T18:48:33.958Z,111.55
2019-03-13T18:50:37.553Z,98.22
2019-03-13T18:52:41.546Z,151.95
2019-03-13T18:54:45.429Z,266.40
2019-03-13T18:56:49.330Z,218.30
2019-03-13T18:58:53.294Z,151.85
2019-03-13T19:00:58.239Z,118.95
2019-03-13T19:03:02.642Z,105.52
2019-03-13T19:05:09.592Z,74.07
2019-03-13T19:07:13.462Z,79.92
2019-03-13T19:09:17.172Z,104.65
2019-03-13T19:11:21.090Z,85.75
2019-03-13T19:13:24.619Z,57.13
2019-03-13T19:15:29.067Z,59.13
2019-03-13T19:17:32.599Z,78.45
2019-03-13T19:19:36.381Z,64.58
2019-03-13T19:21:40.285Z,70.67
2019-03-13T19:23:45.078Z,65.67
2019-03-13T19:25:48.807Z,78.40
2019-03-13T19:27:52.420Z,125.27
2019-03-13T19:29:56.413Z,174.00
2019-03-13T19:32:00.447Z,74.62
2019-03-13T19:34:04.325Z,57.65
2019-03-13T19:36:08.225Z,63.20
2019-03-13T19:38:13.131Z,87.47
2019-03-13T19:40:19.188Z,103.45
2019-03-13T19:42:24.369Z,91.63
2019-03-13T19:44:28.145Z,75.85
2019-03-13T19:46:32.258Z,46.77
2019-03-13T19:48:36.864Z,57.08
2019-03-13T19:50:40.676Z,49.60
2019-03-13T19:52:47.340Z,48.10
2019-03-13T19:54:50.541Z,47.20
2019-03-13T19:56:54.604Z,39.03
2019-03-13T19:58:58.119Z,46.37
2019-03-13T20:01:01.945Z,45.30
2019-03-13T20:03:11.406Z,45.25
2019-03-13T20:05:15.715Z,51.23
2019-03-13T20:07:19.258Z,82.55
2019-03-13T20:09:23.097Z,78.47
2019-03-13T20:11:26.897Z,73.67
2019-03-13T20:13:30.699Z,79.72
2019-03-13T20:15:36.657Z,85.57
2019-03-13T20:17:41.886Z,74.50
2019-03-13T20:19:46.607Z,71.50
2019-03-13T20:21:50.445Z,66.57
2019-03-13T20:23:54.830Z,64.17
2019-03-13T20:25:58.766Z,50.25
2019-03-13T20:28:02.647Z,55.05
2019-03-13T20:30:09.620Z,50.12
2019-03-13T20:32:14.218Z,45.28
2019-03-13T20:34:18.064Z,46.13
2019-03-13T20:36:21.841Z,51.55
2019-03-13T20:38:26.066Z,54.45
2019-03-13T20:40:29.892Z,52.08
2019-03-13T20:42:34.280Z,55.12
2019-03-13T20:44:38.585Z,47.15
2019-03-13T20:46:42.185Z,45.92
2019-03-13T20:48:45.804Z,48.10
2019-03-13T20:50:49.611Z,61.18
2019-03-13T20:52:53.227Z,58.38
2019-03-13T20:54:57.591Z,56.70
2019-03-13T20:57:01.408Z,50.85
2019-03-13T20:59:05.230Z,56.02
2019-03-13T21:01:09.113Z,64.37
2019-03-13T21:03:13.426Z,59.63
2019-03-13T21:05:17.411Z,63.65
2019-03-13T21:07:20.880Z,56.68
2019-03-13T21:09:24.678Z,81.82
2019-03-13T21:11:28.560Z,71.67
2019-03-13T21:13:32.337Z,98.20
2019-03-13T21:15:36.145Z,67.80
2019-03-13T21:17:39.677Z,66.70
2019-03-13T21:19:43.151Z,67.60
2019-03-13T21:21:47.107Z,75.05
2019-03-13T21:23:50.721Z,68.85
2019-03-13T21:25:54.569Z,84.32
2019-03-13T21:27:58.941Z,63.68
2019-03-13T21:30:02.585Z,84.00
2019-03-13T21:32:06.679Z,87.45
2019-03-13T21:34:10.593Z,80.28
2019-03-13T21:36:14.081Z,84.92
2019-03-13T21:38:17.601Z,78.92
2019-03-13T21:40:22.821Z,68.45
2019-03-13T21:42:27.208Z,76.90
2019-03-13T21:44:31.010Z,64.42
2019-03-13T21:46:34.545Z,73.70
2019-03-13T21:48:38.163Z,58.28
2019-03-13T21:50:42.664Z,47.73
2019-03-13T21:52:46.296Z,50.55
2019-03-13T21:54:52.120Z,45.03
2019-03-13T21:56:55.885Z,48.40
2019-03-13T21:58:59.784Z,51.73
2019-03-13T22:01:04.680Z,46.40
2019-03-13T22:03:08.232Z,50.90
2019-03-13T22:05:24.637Z,123.20
2019-03-13T22:07:18.164Z,60.35
2019-03-13T22:09:21.680Z,54.60
2019-03-13T22:11:25.226Z,53.98
2019-03-13T22:13:29.086Z,109.15
2019-03-13T22:15:32.616Z,117.85
2019-03-13T22:17:36.616Z,46.48
2019-03-13T22:19:40.209Z,103.12
2019-03-13T22:21:43.985Z,52.50
2019-03-13T22:23:47.900Z,92.70
2019-03-13T22:25:51.666Z,48.23
2019-03-13T22:27:55.201Z,90.40
2019-03-13T22:29:58.740Z,48.68
2019-03-13T22:32:02.553Z,51.35
2019-03-13T22:34:06.374Z,80.30
2019-03-13T22:36:09.957Z,85.90
2019-03-13T22:38:13.693Z,46.18
2019-03-13T22:40:17.867Z,43.78
2019-03-13T22:42:21.754Z,48.38
2019-03-13T22:44:25.691Z,66.45
2019-03-13T22:46:29.613Z,44.05
2019-03-13T22:48:33.147Z,48.52
2019-03-13T22:50:36.736Z,52.43
2019-03-13T22:52:40.196Z,50.20
2019-03-13T22:54:43.663Z,48.40
2019-03-13T22:56:47.197Z,51.88
2019-03-13T22:58:51.252Z,47.60
2019-03-13T23:00:58.520Z,51.50
2019-03-13T23:03:01.989Z,48.17
2019-03-13T23:05:06.222Z,47.67
2019-03-13T23:07:10.577Z,48.33
2019-03-13T23:09:14.408Z,51.83
2019-03-13T23:11:18.008Z,54.77
2019-03-13T23:13:21.576Z,54.50
2019-03-13T23:15:25.157Z,50.17
2019-03-13T23:17:28.885Z,56.35
2019-03-13T23:19:32.420Z,51.63
2019-03-13T23:21:35.888Z,50.85
2019-03-13T23:23:39.460Z,50.35
2019-03-13T23:25:42.924Z,59.73
2019-03-13T23:27:46.480Z,70.30
2019-03-13T23:29:49.945Z,62.00
2019-03-13T23:31:53.514Z,60.20
2019-03-13T23:33:57.152Z,60.20
2019-03-13T23:36:00.945Z,68.05
2019-03-13T23:38:04.955Z,63.13
2019-03-13T23:40:09.660Z,55.60
2019-03-13T23:42:13.130Z,61.02
2019-03-13T23:44:16.601Z,57.85
2019-03-13T23:46:20.976Z,60.52
2019-03-13T23:48:24.513Z,61.00
2019-03-13T23:50:28.054Z,58.38
2019-03-13T23:52:31.599Z,57.98
2019-03-13T23:54:35.145Z,77.10
2019-03-13T23:56:39.047Z,78.67
2019-03-13T23:58:42.587Z,65.78
